createdAt,value
2022-11-10T00:09:37.841Z,11.12
2022-11-10T00:20:00.004Z,11.07
2022-11-10T00:30:21.762Z,11.00
2022-11-10T00:40:43.553Z,10.97
2022-11-10T00:51:05.618Z,10.91
2022-11-10T01:01:27.506Z,10.94
2022-11-10T01:11:49.792Z,11.00
2022-11-10T01:22:11.910Z,11.06
2022-11-10T01:32:33.829Z,11.17
2022-11-10T01:42:58.447Z,11.23
2022-11-10T01:53:27.056Z,11.27
2022-11-10T02:04:00.551Z,11.33
2022-11-10T02:14:22.913Z,11.39
2022-11-10T02:24:44.447Z,11.46
2022-11-10T02:35:06.602Z,11.56
2022-11-10T02:45:28.824Z,11.63
2022-11-10T02:55:50.837Z,11.66
2022-11-10T03:06:13.260Z,11.70
2022-11-10T03:16:35.478Z,11.67
2022-11-10T03:26:57.469Z,11.67
2022-11-10T03:37:19.255Z,11.68
2022-11-10T03:47:41.706Z,11.69
2022-11-10T03:58:06.932Z,11.65
2022-11-10T04:08:47.456Z,11.61
2022-11-10T04:19:09.597Z,11.63
2022-11-10T04:29:31.414Z,11.60
2022-11-10T04:39:53.891Z,11.61
2022-11-10T04:50:20.569Z,11.53
2022-11-10T05:00:43.294Z,11.63
2022-11-10T05:11:05.602Z,11.67
2022-11-10T05:21:27.429Z,11.61
2022-11-10T05:31:51.861Z,11.56
2022-11-10T05:42:16.238Z,11.49
2022-11-10T05:52:50.164Z,11.49
2022-11-10T06:03:19.915Z,11.44
2022-11-10T06:13:42.402Z,11.41
2022-11-10T06:24:04.592Z,11.43
2022-11-10T06:34:29.314Z,11.46
2022-11-10T06:44:51.322Z,11.43
2022-11-10T06:55:13.335Z,11.38
2022-11-10T07:05:38.827Z,11.39
2022-11-10T07:16:08.059Z,11.50
2022-11-10T07:26:29.937Z,11.66
2022-11-10T07:36:51.961Z,11.80
2022-11-10T07:47:13.797Z,12.05
2022-11-10T07:57:35.759Z,12.24
2022-11-10T08:07:57.957Z,12.39
2022-11-10T08:18:23.094Z,12.59
2022-11-10T08:28:45.394Z,12.50
2022-11-10T08:39:07.346Z,12.76
2022-11-10T08:49:29.261Z,12.81
2022-11-10T08:59:51.317Z,13.12
2022-11-10T09:10:16.102Z,13.16
2022-11-10T09:20:39.306Z,13.03
2022-11-10T09:31:01.329Z,13.12
2022-11-10T09:41:23.244Z,13.48
2022-11-10T09:51:48.435Z,13.77
2022-11-10T10:02:29.894Z,13.85
2022-11-10T10:13:14.435Z,13.66
2022-11-10T10:24:07.797Z,13.59
2022-11-10T10:34:31.759Z,13.39
2022-11-10T10:45:12.364Z,13.20
2022-11-10T10:55:36.510Z,13.09
2022-11-10T11:06:06.249Z,13.19
2022-11-10T11:16:28.534Z,13.34
2022-11-10T11:27:04.443Z,13.58
2022-11-10T11:38:08.374Z,13.75
2022-11-10T11:48:53.885Z,13.54
2022-11-10T11:59:34.587Z,13.67
2022-11-10T12:10:47.934Z,13.53
2022-11-10T12:21:54.425Z,13.31
2022-11-10T12:32:25.899Z,13.21
2022-11-10T12:42:56.746Z,13.08
2022-11-10T12:53:24.819Z,13.05
2022-11-10T13:04:01.357Z,13.12
2022-11-10T13:14:29.933Z,13.02
2022-11-10T13:24:52.034Z,12.86
2022-11-10T13:35:29.247Z,12.61
2022-11-10T13:46:00.688Z,12.65
2022-11-10T13:56:32.323Z,12.66
2022-11-10T14:06:56.274Z,12.66
2022-11-10T14:17:23.712Z,12.43
2022-11-10T14:27:45.943Z,12.31
2022-11-10T14:38:36.047Z,12.19
2022-11-10T14:49:00.002Z,12.18
2022-11-10T14:59:24.613Z,12.11
2022-11-10T15:10:17.600Z,12.01
2022-11-10T15:20:41.422Z,11.85
2022-11-10T15:31:10.153Z,11.82
2022-11-10T15:41:35.014Z,11.67
2022-11-10T15:52:00.842Z,11.53
2022-11-10T16:02:25.410Z,11.38
2022-11-10T16:12:47.723Z,11.21
2022-11-10T16:23:09.838Z,10.96
2022-11-10T16:33:31.868Z,10.75
2022-11-10T16:43:53.837Z,10.59
2022-11-10T16:54:16.630Z,10.40
2022-11-10T17:04:38.940Z,10.24
2022-11-10T17:15:00.930Z,10.11
2022-11-10T17:25:29.185Z,10.08
2022-11-10T17:35:52.882Z,10.02
2022-11-10T17:46:15.699Z,10.00
2022-11-10T17:56:37.861Z,9.97
2022-11-10T18:07:00.197Z,9.92
2022-11-10T18:17:22.378Z,9.90
2022-11-10T18:27:44.614Z,9.91
2022-11-10T18:38:09.134Z,9.86
2022-11-10T18:48:36.996Z,9.91
2022-11-10T18:58:59.305Z,9.96
2022-11-10T19:09:21.361Z,10.14
2022-11-10T19:19:43.254Z,10.06
2022-11-10T19:30:07.259Z,9.84
2022-11-10T19:40:30.120Z,9.61
2022-11-10T19:50:56.417Z,9.50
2022-11-10T20:01:19.966Z,9.52
2022-11-10T20:11:41.796Z,9.47
2022-11-10T20:22:03.811Z,9.27
2022-11-10T20:32:26.919Z,9.15
2022-11-10T20:42:49.057Z,9.09
2022-11-10T20:53:11.338Z,8.96
2022-11-10T21:03:33.929Z,8.90
2022-11-10T21:13:56.235Z,8.83
2022-11-10T21:24:18.328Z,8.71
2022-11-10T21:34:40.654Z,8.57
2022-11-10T21:45:02.645Z,8.44
2022-11-10T21:55:24.862Z,8.33
2022-11-10T22:05:47.005Z,8.35
2022-11-10T22:16:52.286Z,8.31
2022-11-10T22:27:14.603Z,8.28
2022-11-10T22:37:37.576Z,8.29
2022-11-10T22:48:18.090Z,8.29
2022-11-10T22:58:40.585Z,8.23
2022-11-10T23:09:03.473Z,8.26
2022-11-10T23:19:25.448Z,8.29
2022-11-10T23:29:47.478Z,8.21
2022-11-10T23:40:10.222Z,8.19
2022-11-10T23:50:33.577Z,8.13
